Time;durP1;ratioP1;P1;durP2;ratioP2;P2;SDS_P1;SDS_P2;PMS_P1;PMS_P2;Temp;Humidity;BMP_temperature;BMP_pressure;BME280_temperature;BME280_humidity;BME280_pressure;Samples;Min_cycle;Max_cycle;Signal;HPM_P1;HPM_P2
2023/07/03 00:00:42;;;;;;;20.75;9.98;;;14.70;99.90;;;;;;5006704;28;20046;-41
2023/07/03 00:03:13;;;;;;;17.88;8.90;;;14.70;99.90;;;;;;5001700;28;20034;-39
2023/07/03 00:05:46;;;;;;;17.60;8.52;;;14.60;99.90;;;;;;5007884;28;20084;-42
2023/07/03 00:08:13;;;;;;;19.52;9.10;;;14.60;99.90;;;;;;5005949;28;20454;-41
2023/07/03 00:10:39;;;;;;;20.48;9.82;;;14.50;99.90;;;;;;5007293;28;20486;-42
2023/07/03 00:13:05;;;;;;;20.50;9.23;;;14.60;99.90;;;;;;5002032;28;20026;-39
2023/07/03 00:15:31;;;;;;;19.15;9.85;;;14.30;99.90;;;;;;5003026;28;20038;-38
2023/07/03 00:17:57;;;;;;;21.15;9.18;;;13.80;99.90;;;;;;5005105;28;20554;-42
2023/07/03 00:20:22;;;;;;;19.38;8.45;;;13.70;99.90;;;;;;5007866;28;20018;-41
2023/07/03 00:22:48;;;;;;;16.90;8.60;;;13.50;99.90;;;;;;5001025;28;20042;-39
2023/07/03 00:25:17;;;;;;;17.70;8.20;;;13.50;99.90;;;;;;4989639;28;20034;-38
2023/07/03 00:27:44;;;;;;;19.00;9.13;;;13.50;99.90;;;;;;5009518;28;20033;-32
2023/07/03 00:30:10;;;;;;;16.00;8.35;;;13.60;99.90;;;;;;5004600;28;20076;-34
2023/07/03 00:32:36;;;;;;;17.83;9.25;;;13.70;99.90;;;;;;5005213;28;20030;-34
2023/07/03 00:35:02;;;;;;;22.42;9.88;;;13.90;99.90;;;;;;5006119;28;20117;-35
2023/07/03 00:37:28;;;;;;;19.98;9.07;;;14.00;99.90;;;;;;5006941;28;20029;-41
2023/07/03 00:39:54;;;;;;;17.20;8.27;;;14.20;99.90;;;;;;5006540;28;20049;-33
2023/07/03 00:42:23;;;;;;;15.80;8.40;;;14.20;99.90;;;;;;5006516;28;20032;-33
2023/07/03 00:44:48;;;;;;;18.05;8.82;;;14.30;99.90;;;;;;5005200;28;20034;-35
2023/07/03 00:47:15;;;;;;;19.73;8.82;;;14.20;99.90;;;;;;5006198;28;20034;-33
2023/07/03 00:49:40;;;;;;;18.27;8.93;;;14.20;99.90;;;;;;5007729;28;20050;-35
2023/07/03 00:52:09;;;;;;;19.30;9.05;;;14.20;99.90;;;;;;5004936;28;20033;-33
2023/07/03 00:54:34;;;;;;;19.05;9.65;;;14.20;99.90;;;;;;5002725;28;20811;-34
2023/07/03 00:57:00;;;;;;;23.08;9.00;;;14.30;99.90;;;;;;5003082;28;20029;-36
2023/07/03 00:59:26;;;;;;;23.88;8.77;;;14.20;99.90;;;;;;5003048;28;20057;-33
2023/07/03 01:02:00;;;;;;;19.85;8.10;;;14.20;99.90;;;;;;5000972;28;20038;-34
2023/07/03 01:04:34;;;;;;;16.30;7.85;;;14.20;99.90;;;;;;5005116;28;20106;-32
2023/07/03 01:07:24;;;;;;;18.90;9.20;;;14.20;99.90;;;;;;5005025;28;20510;-32
2023/07/03 01:09:57;;;;;;;19.80;8.65;;;14.30;99.90;;;;;;4990506;28;20474;-34
2023/07/03 01:12:26;;;;;;;15.88;8.27;;;14.30;99.90;;;;;;5003611;28;20026;-33
2023/07/03 01:14:53;;;;;;;16.10;8.90;;;14.20;99.90;;;;;;5002499;28;20038;-37
2023/07/03 01:17:21;;;;;;;17.88;8.32;;;14.30;99.90;;;;;;5006113;28;20387;-35
2023/07/03 01:19:48;;;;;;;17.83;9.13;;;14.20;99.90;;;;;;4999636;28;20045;-37
2023/07/03 01:22:30;;;;;;;17.77;8.90;;;14.20;99.90;;;;;;4986058;28;20061;-38
2023/07/03 01:25:03;;;;;;;15.25;8.38;;;14.10;99.90;;;;;;4994881;28;20038;-33
2023/07/03 01:27:33;;;;;;;16.02;8.55;;;14.10;99.90;;;;;;4996934;28;20040;-34
2023/07/03 01:30:00;;;;;;;16.00;8.70;;;14.00;99.90;;;;;;5000640;28;20022;-32
2023/07/03 01:32:29;;;;;;;15.93;8.38;;;13.90;99.90;;;;;;5004715;28;20088;-34
2023/07/03 01:34:56;;;;;;;16.48;7.97;;;13.80;99.90;;;;;;5003981;28;20026;-32
2023/07/03 01:37:27;;;;;;;15.43;7.88;;;13.80;99.90;;;;;;5002501;28;20125;-33
2023/07/03 01:39:54;;;;;;;19.90;9.15;;;13.70;99.90;;;;;;5009139;28;20041;-33
2023/07/03 01:42:22;;;;;;;17.42;8.85;;;13.70;99.90;;;;;;5002684;28;20041;-30
2023/07/03 01:44:48;;;;;;;15.05;8.45;;;13.60;99.90;;;;;;5007252;28;20440;-30
2023/07/03 01:47:14;;;;;;;15.52;8.73;;;13.60;99.90;;;;;;5002341;28;20089;-31
2023/07/03 01:49:40;;;;;;;18.55;9.05;;;13.60;99.90;;;;;;5004992;28;20030;-36
2023/07/03 01:52:32;;;;;;;15.35;8.63;;;13.60;99.90;;;;;;5005100;28;20595;-31
2023/07/03 01:55:30;;;;;;;15.43;8.18;;;13.70;99.90;;;;;;5001206;28;20587;-32
2023/07/03 01:58:03;;;;;;;18.23;9.27;;;13.80;99.90;;;;;;4991952;28;20514;-33
2023/07/03 02:00:54;;;;;;;18.48;9.20;;;13.90;99.90;;;;;;5003140;28;20141;-31
2023/07/03 02:03:47;;;;;;;18.38;8.52;;;14.00;99.90;;;;;;5004945;28;20036;-31
2023/07/03 02:06:20;;;;;;;15.07;8.05;;;14.00;99.90;;;;;;5001543;28;20044;-32
2023/07/03 02:08:46;;;;;;;15.45;7.88;;;14.20;99.90;;;;;;5003742;28;20045;-33
2023/07/03 02:11:16;;;;;;;18.83;8.52;;;14.20;99.90;;;;;;5006234;28;20021;-33
2023/07/03 02:13:42;;;;;;;13.30;7.50;;;14.30;99.90;;;;;;5002192;28;20029;-32
2023/07/03 02:16:08;;;;;;;16.23;8.88;;;14.30;99.90;;;;;;5006502;28;20103;-31
2023/07/03 02:18:34;;;;;;;16.88;8.82;;;14.40;99.90;;;;;;5003596;28;20044;-35
2023/07/03 02:21:00;;;;;;;15.60;8.43;;;14.40;99.90;;;;;;5000539;28;20080;-30
2023/07/03 02:23:26;;;;;;;19.92;8.55;;;14.30;99.90;;;;;;5004616;28;20364;-31
2023/07/03 02:25:52;;;;;;;17.88;8.88;;;14.30;99.90;;;;;;5006369;28;20029;-33
2023/07/03 02:28:18;;;;;;;18.85;8.82;;;14.20;99.90;;;;;;5002115;28;20468;-31
2023/07/03 02:30:43;;;;;;;17.58;8.05;;;14.20;99.90;;;;;;5006204;28;20038;-32
2023/07/03 02:33:11;;;;;;;15.32;7.53;;;14.20;99.90;;;;;;5001291;28;20057;-35
2023/07/03 02:35:37;;;;;;;15.65;8.10;;;14.10;99.90;;;;;;5004923;28;20069;-33
2023/07/03 02:38:03;;;;;;;19.60;7.90;;;14.10;99.90;;;;;;5005774;28;20030;-35
2023/07/03 02:40:28;;;;;;;15.23;8.30;;;14.00;99.90;;;;;;4991489;28;20104;-31
2023/07/03 02:42:54;;;;;;;15.20;7.90;;;14.10;99.90;;;;;;5002190;28;20069;-31
2023/07/03 02:45:19;;;;;;;17.48;8.82;;;14.20;99.90;;;;;;5000452;28;20030;-31
2023/07/03 02:47:45;;;;;;;15.68;8.18;;;14.30;99.90;;;;;;5003789;28;20045;-41
2023/07/03 02:50:11;;;;;;;16.05;8.27;;;14.30;99.90;;;;;;5002429;28;20026;-42
2023/07/03 02:52:36;;;;;;;18.88;8.30;;;14.30;99.90;;;;;;4999411;28;20383;-42
2023/07/03 02:55:02;;;;;;;17.70;8.48;;;14.30;99.90;;;;;;5000742;28;20037;-41
2023/07/03 02:57:28;;;;;;;19.83;8.27;;;14.40;99.90;;;;;;4998004;28;20132;-41
2023/07/03 02:59:54;;;;;;;16.75;8.75;;;14.40;99.90;;;;;;5000834;28;20132;-33
2023/07/03 03:02:20;;;;;;;16.60;8.63;;;14.40;99.90;;;;;;5007762;28;20052;-33
2023/07/03 03:04:47;;;;;;;16.63;7.93;;;14.40;99.90;;;;;;5006514;28;20030;-33
2023/07/03 03:07:13;;;;;;;17.15;9.05;;;14.40;99.90;;;;;;5004180;28;20034;-33
2023/07/03 03:09:40;;;;;;;19.73;9.20;;;14.50;99.90;;;;;;5004769;28;20041;-33
2023/07/03 03:12:06;;;;;;;19.30;8.65;;;14.30;99.90;;;;;;4998439;28;20041;-36
2023/07/03 03:14:32;;;;;;;16.98;8.48;;;14.20;99.90;;;;;;4999902;28;20030;-33
2023/07/03 03:16:57;;;;;;;18.58;8.48;;;14.30;99.90;;;;;;5001720;28;20743;-35
2023/07/03 03:19:23;;;;;;;15.77;7.88;;;14.30;99.90;;;;;;5002650;28;20113;-33
2023/07/03 03:21:49;;;;;;;20.33;8.80;;;14.30;99.90;;;;;;5005434;28;20042;-33
2023/07/03 03:24:16;;;;;;;17.58;7.60;;;14.30;99.90;;;;;;4999612;28;20034;-32
2023/07/03 03:26:42;;;;;;;16.80;7.72;;;14.30;99.90;;;;;;5000922;28;20033;-34
2023/07/03 03:29:07;;;;;;;16.52;8.93;;;14.30;99.90;;;;;;5001804;28;20038;-36
2023/07/03 03:31:33;;;;;;;17.92;9.15;;;14.20;99.90;;;;;;5002795;28;20030;-34
2023/07/03 03:33:58;;;;;;;16.70;9.05;;;14.20;99.90;;;;;;5004618;28;20084;-33
2023/07/03 03:36:24;;;;;;;16.08;8.70;;;14.20;99.90;;;;;;5003371;28;20038;-33
2023/07/03 03:38:49;;;;;;;20.63;9.13;;;14.20;99.90;;;;;;5005050;28;20042;-32
2023/07/03 03:41:15;;;;;;;17.60;8.43;;;14.20;99.90;;;;;;5002844;28;20545;-35
2023/07/03 03:43:41;;;;;;;17.63;8.02;;;14.20;99.90;;;;;;5001341;28;20030;-32
2023/07/03 03:46:07;;;;;;;17.60;8.80;;;14.20;99.90;;;;;;4999520;28;20027;-33
2023/07/03 03:48:34;;;;;;;18.23;8.75;;;14.20;99.90;;;;;;5006457;28;20062;-35
2023/07/03 03:51:00;;;;;;;18.92;8.75;;;14.30;99.90;;;;;;5004627;28;20038;-33
2023/07/03 03:53:26;;;;;;;16.98;8.77;;;14.30;99.90;;;;;;5009653;28;20037;-33
2023/07/03 03:55:52;;;;;;;18.05;9.20;;;14.30;99.90;;;;;;5006695;28;20037;-33
2023/07/03 03:58:20;;;;;;;18.15;8.70;;;14.20;99.90;;;;;;5004690;28;20033;-37
2023/07/03 04:00:46;;;;;;;19.63;9.07;;;14.20;99.90;;;;;;5008020;28;20038;-41
2023/07/03 04:03:12;;;;;;;19.85;8.38;;;14.20;99.90;;;;;;5007621;28;20452;-38
2023/07/03 04:05:39;;;;;;;18.88;8.80;;;14.20;99.90;;;;;;5005552;28;20026;-35
2023/07/03 04:08:05;;;;;;;18.33;9.13;;;14.20;99.90;;;;;;5007470;28;20038;-40
2023/07/03 04:10:31;;;;;;;14.82;8.80;;;14.30;99.90;;;;;;5004089;28;20344;-38
2023/07/03 04:12:56;;;;;;;17.55;8.60;;;14.30;99.90;;;;;;5006109;28;20062;-42
2023/07/03 04:15:23;;;;;;;18.15;9.30;;;14.40;99.90;;;;;;5001017;28;20627;-36
2023/07/03 04:17:48;;;;;;;19.33;8.75;;;14.40;99.90;;;;;;5005510;28;20451;-41
2023/07/03 04:20:15;;;;;;;18.05;8.13;;;14.40;99.90;;;;;;5006521;28;20056;-40
2023/07/03 04:22:44;;;;;;;19.52;8.93;;;14.50;99.90;;;;;;5001150;28;20054;-41
2023/07/03 04:25:10;;;;;;;18.38;8.50;;;14.50;99.90;;;;;;5002233;28;20022;-41
2023/07/03 04:27:37;;;;;;;17.95;8.65;;;14.50;99.90;;;;;;5001873;28;20028;-41
2023/07/03 04:30:04;;;;;;;17.15;8.85;;;14.60;99.90;;;;;;5003374;28;20026;-41
2023/07/03 04:32:30;;;;;;;17.17;8.75;;;14.60;99.90;;;;;;5001128;28;20092;-40
2023/07/03 04:34:57;;;;;;;17.27;9.32;;;14.60;99.90;;;;;;5003096;28;20041;-40
2023/07/03 04:37:26;;;;;;;16.63;8.55;;;14.70;99.90;;;;;;4999258;28;20060;-41
2023/07/03 04:39:56;;;;;;;19.15;8.68;;;14.70;99.90;;;;;;5006752;28;20690;-39
2023/07/03 04:42:22;;;;;;;19.15;9.25;;;14.80;99.90;;;;;;5003932;28;20033;-40
2023/07/03 04:44:48;;;;;;;18.48;9.85;;;14.90;99.90;;;;;;5003129;28;20030;-42
2023/07/03 04:47:15;;;;;;;19.02;9.35;;;14.90;99.90;;;;;;5008727;28;20483;-41
2023/07/03 04:49:41;;;;;;;18.15;9.57;;;14.90;99.90;;;;;;5005655;28;20026;-40
2023/07/03 04:52:07;;;;;;;20.42;10.00;;;15.00;99.90;;;;;;5006948;28;20044;-41
2023/07/03 04:54:32;;;;;;;17.95;9.27;;;15.10;99.90;;;;;;4987583;28;20029;-42
2023/07/03 04:56:58;;;;;;;17.27;9.25;;;15.10;99.90;;;;;;5005601;28;20103;-40
2023/07/03 04:59:24;;;;;;;19.30;8.95;;;15.10;99.90;;;;;;5002221;28;20042;-41
2023/07/03 05:01:49;;;;;;;17.90;9.38;;;15.20;99.90;;;;;;5001891;28;20038;-42
2023/07/03 05:04:27;;;;;;;18.38;9.20;;;15.20;99.90;;;;;;5004884;28;20037;-41
2023/07/03 05:06:52;;;;;;;16.85;9.25;;;15.30;99.90;;;;;;4996516;28;20077;-40
2023/07/03 05:09:18;;;;;;;21.08;9.55;;;15.30;99.90;;;;;;5004768;28;20053;-41
2023/07/03 05:11:44;;;;;;;18.02;8.45;;;15.40;99.90;;;;;;5004250;28;20066;-41
2023/07/03 05:14:09;;;;;;;20.02;9.38;;;15.50;99.90;;;;;;5000981;28;20037;-42
2023/07/03 05:16:35;;;;;;;16.42;8.77;;;15.50;99.90;;;;;;5000923;28;20037;-39
2023/07/03 05:19:00;;;;;;;17.92;9.60;;;15.60;99.90;;;;;;4999597;28;20049;-41
2023/07/03 05:21:26;;;;;;;23.80;8.68;;;15.60;99.90;;;;;;5004653;28;20414;-40
2023/07/03 05:23:52;;;;;;;19.10;9.60;;;15.60;99.90;;;;;;5003776;28;20038;-42
2023/07/03 05:26:17;;;;;;;17.73;9.23;;;15.70;99.90;;;;;;5001465;28;20056;-41
2023/07/03 05:28:43;;;;;;;23.42;9.98;;;15.70;99.90;;;;;;4997239;28;20041;-38
2023/07/03 05:31:08;;;;;;;18.45;9.15;;;15.80;99.90;;;;;;5000216;28;20038;-41
2023/07/03 05:33:34;;;;;;;21.27;9.77;;;15.90;99.90;;;;;;5000106;28;20041;-39
2023/07/03 05:36:01;;;;;;;21.17;8.93;;;15.90;99.90;;;;;;5004560;28;20108;-37
2023/07/03 05:38:28;;;;;;;18.88;9.13;;;15.90;99.90;;;;;;4986770;28;20037;-39
2023/07/03 05:40:54;;;;;;;17.40;9.55;;;16.00;99.90;;;;;;5004402;28;20030;-41
2023/07/03 05:43:20;;;;;;;18.98;9.52;;;16.00;99.90;;;;;;5001739;28;20100;-42
2023/07/03 05:45:48;;;;;;;20.20;9.25;;;16.00;99.90;;;;;;4985348;28;20054;-37
2023/07/03 05:48:13;;;;;;;18.13;8.93;;;16.10;99.90;;;;;;5003562;28;20034;-36
2023/07/03 05:50:39;;;;;;;18.75;9.85;;;16.20;99.90;;;;;;5003125;28;20040;-39
2023/07/03 05:53:04;;;;;;;20.05;8.70;;;16.10;99.90;;;;;;5003724;28;20034;-42
2023/07/03 05:55:30;;;;;;;18.88;9.32;;;16.20;99.90;;;;;;5003168;28;20072;-41
2023/07/03 05:57:56;;;;;;;16.40;9.20;;;16.20;99.90;;;;;;5002867;28;20037;-41
2023/07/03 06:00:22;;;;;;;20.48;8.93;;;16.40;99.90;;;;;;5000472;28;20042;-41
2023/07/03 06:02:51;;;;;;;18.90;9.05;;;16.40;99.90;;;;;;5000695;28;20117;-41
2023/07/03 06:05:18;;;;;;;19.65;9.30;;;16.40;99.90;;;;;;5001346;28;20073;-39
2023/07/03 06:07:44;;;;;;;20.05;9.13;;;16.50;99.90;;;;;;4999045;28;20100;-38
2023/07/03 06:10:10;;;;;;;19.48;8.38;;;16.60;99.90;;;;;;5005214;28;20042;-33
2023/07/03 06:12:36;;;;;;;14.68;8.05;;;16.70;99.90;;;;;;4999970;28;20038;-40
2023/07/03 06:15:02;;;;;;;24.27;8.40;;;16.70;99.90;;;;;;4980751;28;20511;-39
2023/07/03 06:17:29;;;;;;;17.88;8.95;;;16.70;99.90;;;;;;5000251;28;20066;-40
2023/07/03 06:19:55;;;;;;;17.38;8.93;;;16.80;99.90;;;;;;4994839;28;20141;-33
2023/07/03 06:22:21;;;;;;;18.73;8.98;;;16.90;99.90;;;;;;5002655;28;20033;-33
2023/07/03 06:24:47;;;;;;;16.83;8.35;;;17.00;99.90;;;;;;5001112;28;20450;-34
2023/07/03 06:27:13;;;;;;;19.88;8.55;;;17.10;99.90;;;;;;5003055;28;20125;-32
2023/07/03 06:29:40;;;;;;;17.42;8.45;;;17.20;99.90;;;;;;4998355;28;20038;-36
2023/07/03 06:32:06;;;;;;;17.75;8.10;;;17.30;99.90;;;;;;5003858;28;20042;-32
2023/07/03 06:34:32;;;;;;;18.75;8.68;;;17.30;99.90;;;;;;5002485;28;20033;-33
2023/07/03 06:37:00;;;;;;;21.15;8.88;;;17.40;99.90;;;;;;5002966;28;20037;-34
2023/07/03 06:39:25;;;;;;;18.17;9.17;;;17.50;99.90;;;;;;5002615;28;20263;-33
2023/07/03 06:41:51;;;;;;;23.15;8.75;;;17.60;99.90;;;;;;5000110;28;20492;-35
2023/07/03 06:44:20;;;;;;;21.95;9.15;;;17.80;99.90;;;;;;5002798;28;20025;-34
2023/07/03 06:46:45;;;;;;;18.17;9.18;;;17.80;99.90;;;;;;5003560;28;20615;-36
2023/07/03 06:49:12;;;;;;;20.85;9.02;;;17.90;99.90;;;;;;5000095;28;20033;-35
2023/07/03 06:51:37;;;;;;;15.90;8.27;;;18.00;99.90;;;;;;5001972;28;20467;-33
2023/07/03 06:54:03;;;;;;;17.85;8.32;;;18.00;99.90;;;;;;5002855;28;20135;-33
2023/07/03 06:56:29;;;;;;;18.85;8.50;;;18.10;99.90;;;;;;4989527;28;20030;-33
2023/07/03 06:58:55;;;;;;;17.35;8.63;;;18.30;99.90;;;;;;4997402;28;20033;-33
2023/07/03 07:01:23;;;;;;;17.95;8.32;;;18.50;99.90;;;;;;4995219;28;20860;-33
2023/07/03 07:03:49;;;;;;;13.68;7.75;;;18.60;99.90;;;;;;5005373;28;20491;-33
2023/07/03 07:06:24;;;;;;;16.88;8.48;;;18.60;99.90;;;;;;5002079;28;20030;-33
2023/07/03 07:08:50;;;;;;;19.02;8.88;;;18.70;99.90;;;;;;5003095;28;20148;-33
2023/07/03 07:11:19;;;;;;;14.13;8.52;;;18.90;99.90;;;;;;4999885;28;20826;-34
2023/07/03 07:13:46;;;;;;;21.10;9.02;;;19.10;99.90;;;;;;5004193;28;20034;-36
2023/07/03 07:16:21;;;;;;;15.65;8.27;;;19.10;99.90;;;;;;5000672;28;20490;-33
2023/07/03 07:18:49;;;;;;;17.00;8.52;;;19.40;99.90;;;;;;5007087;28;20141;-33
2023/07/03 07:21:15;;;;;;;14.63;7.40;;;19.70;99.90;;;;;;5011885;28;20088;-32
2023/07/03 07:23:41;;;;;;;14.23;6.90;;;19.60;99.90;;;;;;5006085;28;20034;-33
2023/07/03 07:26:06;;;;;;;14.95;7.45;;;19.40;99.90;;;;;;5000447;28;20026;-34
2023/07/03 07:28:32;;;;;;;15.90;7.40;;;19.40;99.90;;;;;;5005919;28;20022;-32
2023/07/03 07:30:58;;;;;;;13.90;7.47;;;19.40;99.90;;;;;;5007449;28;21679;-31
2023/07/03 07:33:24;;;;;;;15.65;7.30;;;19.30;99.90;;;;;;5006317;28;20036;-31
2023/07/03 07:35:51;;;;;;;17.77;6.85;;;19.40;99.90;;;;;;5006626;28;20030;-31
2023/07/03 07:38:18;;;;;;;17.25;6.85;;;19.60;99.90;;;;;;5003202;28;20026;-32
2023/07/03 07:40:43;;;;;;;10.57;6.25;;;19.70;99.90;;;;;;5003645;28;20033;-31
2023/07/03 07:43:09;;;;;;;15.75;7.15;;;19.80;99.90;;;;;;5003006;28;20030;-33
2023/07/03 07:45:37;;;;;;;13.23;6.80;;;20.00;99.90;;;;;;5003771;28;20030;-32
2023/07/03 07:48:03;;;;;;;11.45;5.93;;;20.00;99.90;;;;;;5007285;28;20041;-31
2023/07/03 07:50:29;;;;;;;12.85;6.22;;;20.00;99.90;;;;;;5002835;28;20030;-31
2023/07/03 07:52:56;;;;;;;11.02;6.05;;;20.00;99.90;;;;;;5004113;28;20160;-32
2023/07/03 07:55:22;;;;;;;14.93;6.80;;;20.20;99.90;;;;;;5004794;28;20026;-37
2023/07/03 07:57:48;;;;;;;8.85;5.15;;;20.30;99.90;;;;;;5005148;28;20303;-31
2023/07/03 08:00:15;;;;;;;13.18;5.78;;;20.50;99.90;;;;;;4999712;28;20049;-31
2023/07/03 08:02:40;;;;;;;10.30;5.30;;;20.80;99.90;;;;;;5005157;28;20034;-32
2023/07/03 08:05:07;;;;;;;13.27;5.63;;;20.90;99.90;;;;;;5007016;28;20029;-33
2023/07/03 08:07:33;;;;;;;10.93;5.07;;;20.60;99.90;;;;;;5000214;28;20483;-33
2023/07/03 08:09:58;;;;;;;10.32;4.60;;;20.10;99.90;;;;;;5005773;28;20092;-32
2023/07/03 08:12:24;;;;;;;11.80;5.80;;;20.00;99.90;;;;;;5006494;28;20368;-34
2023/07/03 08:14:49;;;;;;;11.10;5.65;;;19.90;99.90;;;;;;5005900;28;20034;-31
2023/07/03 08:17:15;;;;;;;11.75;5.85;;;20.10;99.90;;;;;;5006132;28;20030;-30
2023/07/03 08:19:41;;;;;;;11.25;4.97;;;20.10;99.90;;;;;;5007784;28;20563;-34
2023/07/03 08:22:06;;;;;;;12.23;5.38;;;20.10;99.90;;;;;;5006346;28;20053;-35
2023/07/03 08:24:32;;;;;;;9.85;5.50;;;20.20;99.90;;;;;;5003880;28;20037;-31
2023/07/03 08:26:57;;;;;;;10.75;5.18;;;20.30;99.90;;;;;;5004759;28;20022;-33
2023/07/03 08:29:23;;;;;;;11.50;5.45;;;20.40;99.90;;;;;;5006670;28;20033;-31
2023/07/03 08:31:48;;;;;;;7.97;5.10;;;20.40;99.90;;;;;;5005078;28;20491;-31
2023/07/03 08:34:14;;;;;;;11.55;5.38;;;20.50;99.90;;;;;;5004051;28;20034;-33
2023/07/03 08:36:40;;;;;;;10.88;5.10;;;20.40;99.90;;;;;;5006776;28;20083;-34
2023/07/03 08:39:06;;;;;;;12.32;6.00;;;20.50;99.90;;;;;;4999786;28;20029;-42
2023/07/03 08:41:38;;;;;;;10.32;4.80;;;20.60;99.90;;;;;;5003649;28;20033;-41
2023/07/03 08:44:04;;;;;;;9.07;4.68;;;20.60;99.90;;;;;;5003072;28;20091;-42
2023/07/03 08:46:32;;;;;;;10.63;5.63;;;20.60;99.90;;;;;;5000810;28;20092;-40
2023/07/03 08:49:03;;;;;;;10.75;5.45;;;20.70;99.90;;;;;;5002598;28;20026;-34
2023/07/03 08:51:32;;;;;;;9.10;5.22;;;20.90;99.90;;;;;;5001642;28;20064;-31
2023/07/03 08:54:27;;;;;;;13.38;5.28;;;20.80;99.90;;;;;;5004302;28;20030;-31
2023/07/03 08:56:54;;;;;;;10.95;5.10;;;20.70;99.90;;;;;;5002702;28;20034;-34
2023/07/03 08:59:20;;;;;;;10.68;4.93;;;20.70;99.90;;;;;;5004409;28;20038;-31
2023/07/03 09:02:50;;;;;;;7.93;5.03;;;20.80;99.90;;;;;;5002073;28;20720;-31
2023/07/03 09:05:46;;;;;;;10.13;4.82;;;20.90;99.90;;;;;;4927255;29;20072;-35
2023/07/03 09:08:21;;;;;;;11.48;5.10;;;21.10;99.90;;;;;;4927751;29;20044;-31
2023/07/03 09:10:49;;;;;;;10.80;4.80;;;21.10;99.90;;;;;;4984094;28;20042;-31
2023/07/03 09:13:31;;;;;;;10.25;4.60;;;21.20;99.90;;;;;;5003955;28;20125;-31
2023/07/03 09:16:23;;;;;;;10.05;4.63;;;21.30;99.90;;;;;;5001655;28;20038;-32
2023/07/03 09:19:00;;;;;;;7.45;4.55;;;21.30;99.90;;;;;;5005367;28;20038;-33
2023/07/03 09:21:28;;;;;;;9.67;5.10;;;21.40;99.90;;;;;;5004725;28;20036;-36
2023/07/03 09:24:09;;;;;;;7.25;4.05;;;21.50;99.90;;;;;;5001884;28;20049;-31
2023/07/03 09:26:44;;;;;;;9.50;4.80;;;21.50;99.90;;;;;;5000280;28;20046;-31
2023/07/03 09:29:11;;;;;;;7.97;4.10;;;21.30;99.90;;;;;;5004363;28;20029;-31
2023/07/03 09:31:37;;;;;;;9.70;5.03;;;21.40;99.90;;;;;;4999846;28;20038;-32
2023/07/03 09:34:03;;;;;;;8.50;4.68;;;21.50;99.90;;;;;;5005756;28;20076;-33
2023/07/03 09:36:36;;;;;;;11.00;4.50;;;21.50;99.90;;;;;;5003692;28;20030;-39
2023/07/03 09:39:13;;;;;;;12.50;5.05;;;21.20;99.90;;;;;;5003313;28;20681;-33
2023/07/03 09:41:39;;;;;;;8.52;3.75;;;21.20;99.90;;;;;;4999014;28;20361;-31
2023/07/03 09:44:11;;;;;;;8.10;4.35;;;20.90;99.90;;;;;;5003716;28;20030;-36
2023/07/03 09:46:38;;;;;;;10.45;4.72;;;21.00;99.90;;;;;;5000161;28;20029;-31
2023/07/03 09:49:06;;;;;;;8.40;5.57;;;20.90;99.90;;;;;;5003244;28;20041;-41
2023/07/03 09:51:36;;;;;;;7.60;4.85;;;20.80;99.90;;;;;;5004008;28;20073;-41
2023/07/03 09:54:16;;;;;;;11.40;4.40;;;21.00;99.90;;;;;;5002552;28;20044;-39
2023/07/03 09:56:41;;;;;;;8.90;4.30;;;21.20;99.90;;;;;;5001986;28;20057;-41
2023/07/03 09:59:09;;;;;;;8.40;4.43;;;21.30;99.90;;;;;;5000034;28;20128;-39
2023/07/03 10:01:38;;;;;;;9.77;4.10;;;21.50;99.90;;;;;;5003395;28;20036;-41
2023/07/03 10:04:09;;;;;;;8.60;4.65;;;21.90;99.90;;;;;;5001486;28;20022;-41
2023/07/03 10:06:36;;;;;;;6.72;4.00;;;22.00;99.90;;;;;;5001623;28;20083;-42
2023/07/03 10:09:05;;;;;;;12.05;5.45;;;22.00;99.90;;;;;;5000081;28;20037;-41
2023/07/03 10:12:00;;;;;;;10.75;4.65;;;22.10;99.90;;;;;;4997723;28;20053;-42
2023/07/03 10:14:43;;;;;;;8.23;5.00;;;22.00;99.90;;;;;;4998890;28;20026;-41
2023/07/03 10:17:12;;;;;;;7.93;4.40;;;21.80;99.90;;;;;;4997393;28;20036;-40
2023/07/03 10:19:41;;;;;;;9.85;4.95;;;21.80;99.90;;;;;;4986424;28;20037;-41
2023/07/03 10:22:09;;;;;;;11.70;5.22;;;21.90;99.90;;;;;;4999547;28;20544;-39
2023/07/03 10:24:35;;;;;;;9.88;4.55;;;22.40;99.90;;;;;;4999483;28;20022;-41
2023/07/03 10:27:03;;;;;;;6.72;4.53;;;22.80;99.90;;;;;;4996347;28;20034;-42
2023/07/03 10:29:33;;;;;;;9.93;5.03;;;22.90;99.90;;;;;;5000283;28;20023;-39
2023/07/03 10:32:04;;;;;;;9.07;4.70;;;22.90;99.90;;;;;;4995999;28;20517;-41
2023/07/03 10:34:43;;;;;;;7.43;4.25;;;23.00;99.90;;;;;;5000474;28;20030;-39
2023/07/03 10:37:12;;;;;;;9.75;5.28;;;22.90;99.90;;;;;;4998116;28;20061;-39
2023/07/03 10:39:53;;;;;;;8.43;4.50;;;22.80;99.90;;;;;;5000725;28;20029;-41
2023/07/03 10:42:41;;;;;;;9.70;4.70;;;22.80;99.90;;;;;;5001297;28;20489;-41
2023/07/03 10:45:08;;;;;;;;;;;22.70;99.90;;;;;;5001543;28;20026;-36
2023/07/03 10:47:53;;;;;;;10.90;4.68;;;22.70;99.90;;;;;;5000580;28;19912;-38
2023/07/03 10:50:26;;;;;;;9.77;4.60;;;22.60;99.90;;;;;;5003403;28;20030;-40
2023/07/03 10:52:56;;;;;;;7.95;4.75;;;22.50;99.90;;;;;;5003310;28;20129;-40
2023/07/03 10:55:45;;;;;;;8.68;4.80;;;22.40;99.90;;;;;;5003365;28;20038;-39
2023/07/03 10:58:43;;;;;;;7.03;3.95;;;22.50;99.90;;;;;;5001084;28;20042;-33
2023/07/03 11:01:19;;;;;;;8.35;4.90;;;22.50;99.90;;;;;;4997380;28;20030;-30
2023/07/03 11:04:08;;;;;;;7.03;4.28;;;22.50;99.90;;;;;;5003674;28;20041;-31
2023/07/03 11:06:53;;;;;;;7.75;4.15;;;22.60;99.90;;;;;;5001569;28;20033;-31
2023/07/03 11:09:39;;;;;;;7.13;4.50;;;22.80;99.90;;;;;;5000207;28;20030;-41
2023/07/03 11:12:25;;;;;;;8.80;4.35;;;22.80;99.90;;;;;;5003833;28;20018;-42
2023/07/03 11:15:13;;;;;;;8.48;4.60;;;22.40;99.90;;;;;;4999844;28;20042;-38
2023/07/03 11:17:55;;;;;;;13.20;5.40;;;22.50;99.90;;;;;;5000262;28;20036;-42
2023/07/03 11:20:41;;;;;;;9.90;4.80;;;22.50;99.90;;;;;;4999255;28;20414;-37
2023/07/03 11:23:31;;;;;;;7.78;4.40;;;22.70;99.90;;;;;;4992950;28;20025;-36
2023/07/03 11:26:28;;;;;;;8.05;4.65;;;23.00;99.90;;;;;;4996814;28;20092;-36
2023/07/03 11:28:55;;;;;;;8.68;4.43;;;23.10;99.90;;;;;;4985672;28;20042;-41
2023/07/03 11:31:24;;;;;;;10.82;4.93;;;23.00;99.90;;;;;;4994630;28;20046;-40
2023/07/03 11:33:51;;;;;;;7.88;4.63;;;22.90;99.90;;;;;;4998276;28;20360;-38
2023/07/03 11:36:38;;;;;;;8.53;4.27;;;23.10;99.90;;;;;;5000674;28;20117;-42
2023/07/03 11:39:09;;;;;;;6.68;4.35;;;23.60;99.90;;;;;;5003669;28;20430;-41
2023/07/03 11:42:00;;;;;;;8.45;4.35;;;23.70;99.90;;;;;;4998832;28;20076;-42
2023/07/03 11:44:31;;;;;;;8.70;4.90;;;23.40;99.90;;;;;;4999166;28;20033;-41
2023/07/03 11:47:05;;;;;;;7.20;4.40;;;23.10;99.90;;;;;;4999407;28;20030;-39
2023/07/03 11:49:34;;;;;;;8.40;4.53;;;23.20;99.90;;;;;;4998711;28;20025;-41
2023/07/03 11:52:03;;;;;;;9.05;4.63;;;23.10;99.90;;;;;;5007159;28;20430;-41
2023/07/03 11:54:31;;;;;;;11.75;4.85;;;23.10;99.90;;;;;;5005620;28;20034;-41
2023/07/03 11:57:28;;;;;;;10.25;4.60;;;23.20;99.90;;;;;;5007922;28;20034;-38
2023/07/03 12:00:11;;;;;;;9.15;4.78;;;23.30;99.90;;;;;;5001975;28;20965;-41
2023/07/03 12:02:49;;;;;;;9.13;4.32;;;22.80;99.90;;;;;;5003383;28;20038;-41
2023/07/03 12:05:42;;;;;;;12.43;5.05;;;22.60;99.90;;;;;;5006549;28;20038;-38
2023/07/03 12:08:31;;;;;;;8.95;4.45;;;22.70;99.90;;;;;;5003051;28;20455;-31
2023/07/03 12:10:59;;;;;;;9.95;4.65;;;22.60;99.90;;;;;;5006569;28;20045;-30
2023/07/03 12:13:39;;;;;;;8.02;4.32;;;22.70;99.90;;;;;;5003891;28;20034;-34
2023/07/03 12:16:18;;;;;;;7.60;4.43;;;22.80;99.90;;;;;;5000513;28;20104;-32
2023/07/03 12:18:44;;;;;;;7.32;4.35;;;22.90;99.90;;;;;;5005606;28;20492;-31
2023/07/03 12:21:10;;;;;;;9.15;4.78;;;22.80;99.90;;;;;;5002976;28;20025;-33
2023/07/03 12:23:44;;;;;;;10.68;4.88;;;22.50;99.90;;;;;;5003145;28;20411;-33
2023/07/03 12:26:15;;;;;;;9.63;4.25;;;22.60;99.90;;;;;;5001686;28;20456;-32
2023/07/03 12:28:41;;;;;;;7.97;4.00;;;22.60;99.90;;;;;;5004186;28;20124;-31
2023/07/03 12:31:22;;;;;;;9.73;4.30;;;22.60;99.90;;;;;;5005731;28;20033;-31
2023/07/03 12:33:57;;;;;;;11.10;4.60;;;22.60;99.90;;;;;;5005260;28;20044;-31
2023/07/03 12:36:28;;;;;;;7.07;4.30;;;22.40;99.90;;;;;;5007238;28;20037;-33
2023/07/03 12:38:56;;;;;;;8.82;3.78;;;22.60;99.90;;;;;;5002930;28;20046;-30
2023/07/03 12:41:38;;;;;;;8.63;4.38;;;22.50;99.90;;;;;;5004760;28;20033;-30
2023/07/03 12:44:07;;;;;;;8.60;4.93;;;22.70;99.90;;;;;;4991950;28;20105;-29
2023/07/03 12:46:37;;;;;;;8.55;4.53;;;23.00;99.90;;;;;;5006841;28;20379;-36
2023/07/03 12:49:03;;;;;;;8.82;4.28;;;23.30;99.90;;;;;;5003455;28;20095;-31
2023/07/03 12:51:28;;;;;;;8.10;4.90;;;23.20;99.90;;;;;;5004816;28;20520;-31
2023/07/03 12:53:54;;;;;;;10.20;4.32;;;23.10;99.90;;;;;;5004034;28;20025;-31